Time;durP1;ratioP1;P1;durP2;ratioP2;P2;SDS_P1;SDS_P2;PMS_P1;PMS_P2;Temp;Humidity;BMP_temperature;BMP_pressure;BME280_temperature;BME280_humidity;BME280_pressure;Samples;Min_cycle;Max_cycle;Signal;HPM_P1;HPM_P2
2023/05/27 00:00:54;;;;;;;20.10;5.90;;;;;;;6.90;91.87;100980.85;105808;1254;73385;-69
2023/05/27 00:03:42;;;;;;;19.60;5.10;;;;;;;6.92;91.83;100979.52;105756;1252;60438;-67
2023/05/27 00:06:30;;;;;;;20.70;4.50;;;;;;;6.93;91.66;100978.38;105681;1253;60432;-69
2023/05/27 00:09:19;;;;;;;18.60;5.10;;;;;;;6.96;91.84;100979.31;105816;1254;73447;-67
2023/05/27 00:12:08;;;;;;;18.80;4.90;;;;;;;6.97;91.84;100982.77;104955;1257;1003414;-68
2023/05/27 00:14:56;;;;;;;17.60;4.90;;;;;;;6.97;91.55;100982.42;105505;1253;71599;-69
2023/05/27 00:17:45;;;;;;;17.80;4.70;;;;;;;6.96;91.53;100982.84;105642;1253;60517;-67
2023/05/27 00:20:33;;;;;;;16.40;5.20;;;;;;;6.95;91.51;100982.02;105522;1262;60355;-69
2023/05/27 00:23:21;;;;;;;16.70;4.40;;;;;;;6.89;91.60;100972.97;105743;1259;74210;-68
2023/05/27 00:26:10;;;;;;;16.80;4.30;;;;;;;6.91;91.43;100976.20;105626;1259;67619;-68
2023/05/27 00:28:58;;;;;;;17.80;5.30;;;;;;;6.89;91.81;100976.67;105639;1254;72387;-67
2023/05/27 00:31:46;;;;;;;17.30;4.70;;;;;;;6.86;91.95;100974.50;105817;1257;60447;-67
2023/05/27 00:34:34;;;;;;;21.70;4.60;;;;;;;6.82;92.03;100976.27;105595;1253;60507;-69
2023/05/27 00:37:23;;;;;;;23.60;4.90;;;;;;;6.78;92.06;100978.21;105790;1253;74445;-70
2023/05/27 00:40:14;;;;;;;20.30;4.70;;;;;;;6.75;91.92;100980.33;105726;1260;66703;-68
2023/05/27 00:43:02;;;;;;;19.30;5.50;;;;;;;6.71;92.31;100980.50;105681;1253;72408;-67
2023/05/27 00:45:50;;;;;;;16.20;4.70;;;;;;;6.67;92.58;100980.51;105675;1262;60520;-69
2023/05/27 00:48:39;;;;;;;18.70;4.70;;;;;;;6.64;93.00;100983.64;105608;1253;60524;-67
2023/05/27 00:51:27;;;;;;;18.00;4.40;;;;;;;6.64;92.65;100981.88;105595;1253;72605;-67
2023/05/27 00:54:16;;;;;;;16.70;5.00;;;;;;;6.64;92.74;100983.30;104854;1253;1015474;-67
2023/05/27 00:57:05;;;;;;;22.10;5.10;;;;;;;6.63;93.12;100976.29;105482;1257;72667;-68
2023/05/27 00:59:54;;;;;;;17.40;4.80;;;;;;;6.61;92.99;100979.52;105632;1253;60421;-67
2023/05/27 01:02:42;;;;;;;22.20;5.00;;;;;;;6.60;93.09;100976.79;105507;1253;60350;-66
2023/05/27 01:05:31;;;;;;;17.40;5.10;;;;;;;6.58;93.29;100977.73;105815;1256;74259;-67
2023/05/27 01:08:41;;;;;;;14.90;5.30;;;;;;;6.56;93.06;100985.98;105752;1253;66546;-69
2023/05/27 01:11:39;;;;;;;17.40;4.80;;;;;;;6.53;93.05;100981.88;105614;1254;71682;-69
2023/05/27 01:14:32;;;;;;;20.80;5.00;;;;;;;6.48;93.20;100984.53;105810;1253;60866;-69
2023/05/27 01:17:24;;;;;;;19.10;4.80;;;;;;;6.44;93.57;100986.66;106207;1259;60377;-69
2023/05/27 01:20:14;;;;;;;19.80;5.10;;;;;;;6.40;94.05;100986.70;105880;1253;72556;-68
2023/05/27 01:23:03;;;;;;;16.30;5.40;;;;;;;6.36;93.98;100990.38;105516;1257;66280;-67
2023/05/27 01:25:52;;;;;;;22.20;5.30;;;;;;;6.32;94.18;100983.70;105380;1257;72437;-68
2023/05/27 01:28:42;;;;;;;18.30;5.10;;;;;;;6.30;94.67;100985.55;105471;1256;60645;-68
2023/05/27 01:32:01;;;;;;;17.20;5.00;;;;;;;6.27;94.63;100989.04;105433;1256;60355;-68
2023/05/27 01:35:13;;;;;;;14.40;5.10;;;;;;;6.24;95.10;100990.41;105726;1261;73792;-68
2023/05/27 01:38:06;;;;;;;17.50;5.20;;;;;;;6.23;94.90;100990.45;105855;1256;67659;-69
2023/05/27 01:40:56;;;;;;;16.60;5.30;;;;;;;6.22;94.98;100996.84;105563;1257;72937;-70
2023/05/27 01:43:45;;;;;;;18.20;4.90;;;;;;;6.21;95.07;100996.48;105533;1257;60342;-68
2023/05/27 01:46:33;;;;;;;15.40;4.90;;;;;;;6.20;95.15;100998.33;105672;1256;60488;-69
2023/05/27 01:49:22;;;;;;;22.20;5.50;;;;;;;6.19;95.33;100997.88;105695;1257;73106;-69
2023/05/27 01:52:12;;;;;;;21.20;5.30;;;;;;;6.18;95.15;100998.77;105629;1257;67267;-70
2023/05/27 01:55:02;;;;;;;18.20;5.30;;;;;;;6.16;94.86;100995.35;105655;1254;72772;-69
2023/05/27 01:57:50;;;;;;;18.00;4.80;;;;;;;6.14;94.98;100996.13;105887;1253;60434;-71
2023/05/27 02:00:39;;;;;;;20.80;5.50;;;;;;;6.10;94.94;100999.98;105958;1254;60521;-70
2023/05/27 02:03:27;;;;;;;22.30;6.10;;;;;;;6.07;95.04;100997.86;105727;1259;71450;-67
2023/05/27 02:06:15;;;;;;;18.90;5.30;;;;;;;6.00;94.87;101000.08;105919;1258;68634;-69
2023/05/27 02:09:04;;;;;;;19.20;6.00;;;;;;;5.95;94.96;101002.23;105781;1254;72400;-71
2023/05/27 02:11:53;;;;;;;17.30;5.10;;;;;;;5.91;95.49;101004.83;105639;1260;60526;-68
2023/05/27 02:14:41;;;;;;;20.00;6.50;;;;;;;5.88;95.55;101006.38;105726;1254;60500;-67
2023/05/27 02:17:29;;;;;;;16.10;5.20;;;;;;;5.86;95.65;101008.23;105664;1253;74687;-68
2023/05/27 02:20:17;;;;;;;19.00;6.90;;;;;;;5.85;95.39;101004.76;105700;1263;66817;-68
2023/05/27 02:23:07;;;;;;;17.20;6.00;;;;;;;5.85;95.19;101011.27;105352;1259;73798;-66
2023/05/27 02:25:56;;;;;;;17.30;5.80;;;;;;;5.86;95.24;101017.05;105398;1260;60541;-68
2023/05/27 02:28:44;;;;;;;14.50;5.20;;;;;;;5.85;95.38;101016.20;105402;1257;60518;-70
2023/05/27 02:31:32;;;;;;;17.60;5.40;;;;;;;5.83;95.50;101018.02;105123;1262;73597;-66
2023/05/27 02:34:20;;;;;;;16.40;5.40;;;;;;;5.84;95.46;101022.27;105518;1261;68411;-66
2023/05/27 02:37:11;;;;;;;18.40;6.40;;;;;;;5.84;95.45;101025.95;105596;1264;73296;-66
2023/05/27 02:40:00;;;;;;;19.50;5.20;;;;;;;5.85;95.49;101026.06;105760;1259;60503;-66
2023/05/27 02:42:48;;;;;;;20.10;6.40;;;;;;;5.87;94.94;101027.58;105548;1264;60593;-67
2023/05/27 02:45:36;;;;;;;16.70;5.70;;;;;;;5.85;94.70;101033.45;105587;1257;74445;-68
2023/05/27 02:48:26;;;;;;;17.00;6.30;;;;;;;5.84;94.73;101032.96;105565;1261;68031;-67
2023/05/27 02:51:15;;;;;;;21.30;7.50;;;;;;;5.83;94.38;101035.48;105684;1259;72564;-67
2023/05/27 02:54:03;;;;;;;18.00;7.10;;;;;;;5.83;94.69;101037.79;105381;1255;60426;-67
2023/05/27 02:56:52;;;;;;;18.10;6.40;;;;;;;5.85;94.63;101041.04;105515;1256;60422;-67
2023/05/27 02:59:40;;;;;;;21.40;7.20;;;;;;;5.87;94.51;101043.58;105495;1256;73924;-68
2023/05/27 03:02:28;;;;;;;19.60;7.20;;;;;;;5.88;94.48;101049.70;105782;1255;66105;-68
2023/05/27 03:05:16;;;;;;;19.80;7.30;;;;;;;5.91;94.53;101048.89;105437;1254;72149;-67
2023/05/27 03:08:05;;;;;;;20.30;6.60;;;;;;;5.94;94.49;101048.58;105610;1261;60558;-69
2023/05/27 03:10:56;;;;;;;23.60;7.50;;;;;;;5.98;94.40;101053.02;105790;1254;60526;-68
2023/05/27 03:13:44;;;;;;;17.90;7.10;;;;;;;6.02;94.26;101052.85;105616;1254;74530;-69
2023/05/27 03:16:33;;;;;;;17.70;7.50;;;;;;;6.08;93.99;101055.25;105585;1254;68953;-67
2023/05/27 03:19:21;;;;;;;20.10;7.80;;;;;;;6.17;94.67;101058.91;105404;1255;72880;-68
2023/05/27 03:22:10;;;;;;;18.50;7.10;;;;;;;6.19;93.81;101058.27;105820;1254;60510;-69
2023/05/27 03:24:58;;;;;;;16.20;6.20;;;;;;;6.21;93.73;101059.09;105642;1254;60502;-68
2023/05/27 03:27:46;;;;;;;18.30;6.50;;;;;;;6.24;93.62;101055.95;105569;1259;72633;-69
2023/05/27 03:30:38;;;;;;;17.20;6.30;;;;;;;6.28;93.69;101059.82;105610;1258;67824;-71
2023/05/27 03:33:26;;;;;;;16.60;6.30;;;;;;;6.34;93.42;101065.23;105671;1256;72766;-71
2023/05/27 03:36:14;;;;;;;16.50;5.30;;;;;;;6.42;93.04;101058.00;105560;1262;60373;-71
2023/05/27 03:39:04;;;;;;;18.60;6.40;;;;;;;6.50;93.05;101054.27;105617;1256;60490;-68
2023/05/27 03:41:54;;;;;;;17.70;6.70;;;;;;;6.59;92.81;101053.36;105734;1260;75107;-69
2023/05/27 03:44:42;;;;;;;15.40;5.60;;;;;;;6.67;92.55;101056.35;105556;1253;67243;-70
2023/05/27 03:47:30;;;;;;;18.60;6.90;;;;;;;6.75;92.34;101059.52;105657;1253;72776;-72
2023/05/27 03:50:20;;;;;;;18.40;6.70;;;;;;;6.82;92.34;101056.38;105707;1253;60811;-69
2023/05/27 03:53:08;;;;;;;15.50;5.50;;;;;;;6.90;91.90;101058.11;105071;1253;1003559;-70
2023/05/27 03:55:56;;;;;;;13.30;5.80;;;;;;;6.98;91.56;101060.91;105689;1261;73714;-71
2023/05/27 03:58:44;;;;;;;20.70;5.60;;;;;;;7.08;91.65;101060.10;105380;1253;67745;-70
2023/05/27 04:01:34;;;;;;;14.60;4.60;;;;;;;7.20;91.02;101055.51;105632;1253;71343;-72
2023/05/27 04:04:22;;;;;;;15.90;4.90;;;;;;;7.29;90.62;101056.61;105901;1257;60437;-70
2023/05/27 04:07:13;;;;;;;13.60;5.00;;;;;;;7.43;90.36;101059.48;105634;1261;60333;-70
2023/05/27 04:10:04;;;;;;;16.10;4.80;;;;;;;7.55;90.12;101062.09;105796;1254;73615;-69
2023/05/27 04:12:53;;;;;;;17.00;5.20;;;;;;;7.68;90.09;101063.91;105740;1259;66283;-71
2023/05/27 04:15:41;;;;;;;15.80;5.00;;;;;;;7.82;89.99;101065.34;105773;1257;72722;-70
2023/05/27 04:18:30;;;;;;;13.40;4.50;;;;;;;7.97;89.92;101064.06;106024;1253;60398;-70
2023/05/27 04:21:19;;;;;;;14.40;5.00;;;;;;;8.14;89.57;101065.31;106065;1262;60437;-71
2023/05/27 04:24:08;;;;;;;15.40;4.90;;;;;;;8.32;89.61;101069.13;105694;1261;73743;-68
2023/05/27 04:26:56;;;;;;;15.00;4.40;;;;;;;8.53;89.26;101072.34;105744;1253;67703;-69
2023/05/27 04:29:47;;;;;;;18.10;4.50;;;;;;;8.75;88.78;101071.34;106364;1253;72154;-70
2023/05/27 04:32:37;;;;;;;14.60;4.00;;;;;;;9.01;88.40;101073.45;106032;1259;60480;-70
2023/05/27 04:35:27;;;;;;;16.20;4.20;;;;;;;9.29;87.27;101068.89;105691;1254;60434;-69
2023/05/27 04:38:16;;;;;;;14.00;3.60;;;;;;;9.61;86.21;101071.52;105737;1257;74510;-73
2023/05/27 04:41:15;;;;;;;13.90;3.50;;;;;;;10.02;84.44;101072.14;106727;1259;67872;-71
2023/05/27 04:44:21;;;;;;;12.80;3.50;;;;;;;10.57;83.38;101068.89;105772;1257;71319;-72
2023/05/27 04:47:11;;;;;;;15.30;4.40;;;;;;;11.27;81.91;101064.67;105598;1257;60510;-70
2023/05/27 04:50:03;;;;;;;14.80;3.90;;;;;;;12.07;79.70;101066.48;105970;1253;60530;-71
2023/05/27 04:52:52;;;;;;;13.20;4.10;;;;;;;12.96;76.47;101070.48;105745;1259;73563;-71
2023/05/27 04:55:42;;;;;;;13.30;3.90;;;;;;;13.79;72.92;101071.58;105615;1253;66277;-73
2023/05/27 04:58:30;;;;;;;13.80;4.10;;;;;;;14.58;69.38;101067.52;105694;1253;71417;-71
2023/05/27 05:01:22;;;;;;;12.30;3.70;;;;;;;15.31;65.85;101060.99;105812;1253;60533;-74
2023/05/27 05:04:16;;;;;;;15.30;4.40;;;;;;;16.01;62.08;101056.51;105793;1253;61283;-74
2023/05/27 05:07:07;;;;;;;14.50;4.30;;;;;;;16.66;58.97;101057.02;105738;1259;75017;-75
2023/05/27 05:09:56;;;;;;;11.70;3.90;;;;;;;17.34;54.88;101056.56;105685;1253;66417;-74
2023/05/27 05:12:50;;;;;;;11.90;3.70;;;;;;;17.90;51.97;101060.79;105599;1253;72600;-75
2023/05/27 05:15:38;;;;;;;11.90;3.40;;;;;;;18.42;49.28;101063.06;105652;1253;60216;-73
2023/05/27 05:18:27;;;;;;;9.20;2.30;;;;;;;19.01;45.09;101061.42;105525;1258;60360;-72
2023/05/27 05:21:15;;;;;;;9.90;2.30;;;;;;;19.62;43.79;101056.69;105770;1259;72214;-74
2023/05/27 05:24:05;;;;;;;8.50;2.10;;;;;;;20.06;39.18;101056.71;105710;1257;69047;-73
2023/05/27 05:26:56;;;;;;;10.00;2.20;;;;;;;20.53;38.79;101056.30;106010;1254;71123;-72
2023/05/27 05:29:46;;;;;;;8.80;2.00;;;;;;;21.02;38.22;101059.46;105916;1255;60692;-74
2023/05/27 05:32:34;;;;;;;10.10;2.10;;;;;;;21.57;37.72;101056.48;105768;1257;60455;-74
2023/05/27 05:35:23;;;;;;;10.70;1.90;;;;;;;22.11;35.97;101060.88;105852;1258;73138;-75
2023/05/27 05:38:16;;;;;;;9.60;2.10;;;;;;;22.33;33.69;101060.63;105692;1257;67994;-75
2023/05/27 05:41:05;;;;;;;8.90;2.20;;;;;;;22.47;33.50;101059.59;105799;1254;71003;-74
2023/05/27 05:43:56;;;;;;;9.00;2.10;;;;;;;22.64;33.70;101062.55;105722;1261;60524;-76
2023/05/27 05:46:45;;;;;;;9.50;2.50;;;;;;;22.77;32.81;101059.66;106145;1256;206401;-71
2023/05/27 05:49:33;;;;;;;10.00;2.00;;;;;;;22.86;31.78;101056.64;105809;1259;73880;-69
2023/05/27 05:52:22;;;;;;;7.60;2.00;;;;;;;23.14;31.64;101055.40;106043;1256;69154;-69
2023/05/27 05:55:13;;;;;;;7.50;1.90;;;;;;;23.49;30.40;101057.02;105912;1259;72396;-71
2023/05/27 05:58:04;;;;;;;8.50;1.80;;;;;;;23.67;29.34;101059.94;108121;1256;60518;-72
2023/05/27 06:00:53;;;;;;;8.30;1.70;;;;;;;23.80;28.72;101059.02;105596;1254;60537;-75
2023/05/27 06:03:51;;;;;;;8.30;1.70;;;;;;;24.14;29.17;101057.08;106031;1260;73642;-74
2023/05/27 06:06:48;;;;;;;7.30;1.60;;;;;;;24.60;27.97;101060.73;108844;1254;67795;-73
2023/05/27 06:09:58;;;;;;;6.60;1.60;;;;;;;25.18;27.58;101066.86;107511;1259;72750;-72
2023/05/27 06:12:53;;;;;;;8.20;1.70;;;;;;;25.30;25.65;101067.02;105472;1257;60537;-74
2023/05/27 06:15:43;;;;;;;6.90;1.70;;;;;;;25.67;25.24;101066.70;105633;1257;60476;-72
2023/05/27 06:18:32;;;;;;;7.60;1.50;;;;;;;26.15;24.90;101067.77;106294;1258;72673;-71
2023/05/27 06:21:22;;;;;;;7.10;2.00;;;;;;;26.58;23.61;101064.08;105920;1260;66663;-75
2023/05/27 06:24:36;;;;;;;7.80;1.90;;;;;;;26.89;23.18;101070.11;105855;1254;72830;-74
2023/05/27 06:27:47;;;;;;;10.40;1.50;;;;;;;27.15;22.76;101070.54;105751;1256;60430;-72
2023/05/27 06:30:37;;;;;;;6.40;1.40;;;;;;;27.12;22.45;101070.62;105704;1253;60459;-72
2023/05/27 06:33:28;;;;;;;7.80;1.50;;;;;;;27.37;22.74;101077.14;105798;1254;72654;-74
2023/05/27 06:36:16;;;;;;;7.20;1.20;;;;;;;27.50;22.59;101074.77;105748;1253;66451;-74
2023/05/27 06:39:05;;;;;;;7.70;1.50;;;;;;;27.34;21.42;101080.41;105891;1253;71946;-72
2023/05/27 06:41:55;;;;;;;6.30;1.40;;;;;;;27.05;21.73;101085.43;106150;1253;60343;-73
2023/05/27 06:45:03;;;;;;;6.70;1.30;;;;;;;27.07;21.36;101090.81;106019;1254;60522;-73
2023/05/27 06:47:53;;;;;;;6.50;1.20;;;;;;;27.43;21.84;101094.06;105772;1253;72483;-71
2023/05/27 06:50:42;;;;;;;7.40;1.30;;;;;;;27.75;20.77;101093.84;105904;1253;67890;-72
2023/05/27 06:53:30;;;;;;;6.00;1.20;;;;;;;27.92;18.93;101098.62;105449;1260;72711;-74
2023/05/27 06:56:24;;;;;;;5.60;1.10;;;;;;;28.28;19.43;101103.48;105681;1260;60438;-71
2023/05/27 06:59:39;;;;;;;6.30;1.30;;;;;;;28.70;19.10;101109.58;106179;1262;60523;-71
2023/05/27 07:02:28;;;;;;;6.40;1.10;;;;;;;28.58;19.12;101109.27;105865;1260;74373;-73
2023/05/27 07:05:18;;;;;;;5.00;1.20;;;;;;;28.63;18.48;101112.25;105522;1262;67967;-75
2023/05/27 07:08:07;;;;;;;7.60;1.20;;;;;;;28.68;17.26;101111.23;105688;1258;72740;-75
2023/05/27 07:11:00;;;;;;;5.60;1.20;;;;;;;28.82;17.33;101109.98;105329;1259;60578;-73
2023/05/27 07:13:49;;;;;;;10.20;1.60;;;;;;;29.36;17.85;101109.75;105446;1260;60694;-68
2023/05/27 07:16:39;;;;;;;6.00;1.30;;;;;;;29.82;17.94;101103.74;105343;1259;73520;-74
2023/05/27 07:19:28;;;;;;;6.70;1.00;;;;;;;30.19;16.87;101101.56;105324;1260;67646;-71
2023/05/27 07:22:19;;;;;;;7.30;1.00;;;;;;;30.50;16.03;101097.91;105511;1260;72691;-71
2023/05/27 07:25:08;;;;;;;6.10;1.20;;;;;;;30.72;15.46;101102.02;105911;1257;60419;-68
2023/05/27 07:27:57;;;;;;;5.70;1.00;;;;;;;30.98;14.84;101104.45;105826;1257;60512;-71
2023/05/27 07:30:45;;;;;;;5.50;0.80;;;;;;;30.94;13.53;101104.08;105779;1254;72818;-73
2023/05/27 07:33:33;;;;;;;5.30;1.20;;;;;;;30.60;14.25;101103.17;105563;1254;67742;-69
2023/05/27 07:36:22;;;;;;;5.20;0.90;;;;;;;30.68;14.61;101105.55;106019;1257;73258;-68
2023/05/27 07:39:10;;;;;;;6.30;1.00;;;;;;;30.92;14.89;101107.05;105665;1255;60331;-70
2023/05/27 07:41:58;;;;;;;7.40;1.00;;;;;;;30.54;14.13;101102.77;105651;1257;60533;-72
2023/05/27 07:44:48;;;;;;;4.40;0.90;;;;;;;30.54;14.12;101101.90;105588;1261;72121;-71
2023/05/27 07:47:36;;;;;;;4.70;0.90;;;;;;;30.87;14.34;101102.53;105645;1265;68231;-73
2023/05/27 07:50:26;;;;;;;5.70;1.00;;;;;;;30.88;14.30;101099.86;105497;1260;73388;-73
2023/05/27 07:53:29;;;;;;;3.80;0.70;;;;;;;31.21;14.76;101096.57;105753;1264;60720;-71
2023/05/27 07:56:17;;;;;;;5.60;0.90;;;;;;;31.55;14.12;101093.81;105458;1265;60426;-72
2023/05/27 07:59:06;;;;;;;7.40;1.00;;;;;;;31.58;13.49;101090.21;105443;1262;73660;-76
2023/05/27 08:01:54;;;;;;;4.00;0.80;;;;;;;31.47;13.52;101090.28;105479;1259;66912;-75
2023/05/27 08:04:43;;;;;;;6.40;1.00;;;;;;;31.76;14.25;101089.79;105585;1258;72551;-71
2023/05/27 08:07:54;;;;;;;7.40;0.90;;;;;;;31.87;13.59;101089.86;105855;1262;60568;-74
2023/05/27 08:11:09;;;;;;;5.80;1.00;;;;;;;31.73;13.98;101083.10;106582;1258;60419;-75
2023/05/27 08:14:08;;;;;;;7.90;1.30;;;;;;;31.80;14.13;101087.04;105630;1262;73836;-74
2023/05/27 08:17:07;;;;;;;4.90;1.00;;;;;;;31.85;13.82;101086.34;105529;1264;68145;-74
2023/05/27 08:20:08;;;;;;;4.50;0.80;;;;;;;31.90;13.33;101083.04;105733;1254;72424;-73
2023/05/27 08:23:19;;;;;;;6.90;1.10;;;;;;;31.77;12.84;101082.30;105788;1260;60628;-72
2023/05/27 08:26:30;;;;;;;6.00;1.40;;;;;;;31.77;13.68;101083.46;105948;1264;60399;-73
2023/05/27 08:29:47;;;;;;;6.20;1.20;;;;;;;31.56;13.40;101086.30;105772;1257;72408;-73
2023/05/27 08:32:45;;;;;;;5.60;1.00;;;;;;;31.18;12.78;101075.29;106013;1256;66808;-74
2023/05/27 08:35:33;;;;;;;5.50;1.00;;;;;;;31.19;12.52;101073.80;105792;1259;73236;-75
2023/05/27 08:38:22;;;;;;;5.90;1.20;;;;;;;31.50;13.44;101073.53;105653;1254;60444;-75
2023/05/27 08:41:16;;;;;;;4.80;1.10;;;;;;;31.73;12.67;101071.80;105959;1260;60407;-74
2023/05/27 08:44:05;;;;;;;4.80;1.10;;;;;;;31.62;13.06;101072.05;105611;1256;74074;-74
2023/05/27 08:47:15;;;;;;;5.70;1.00;;;;;;;31.48;12.86;101075.23;106004;1264;67576;-77
2023/05/27 08:50:07;;;;;;;4.60;0.90;;;;;;;31.32;12.76;101073.07;105555;1265;72707;-73
2023/05/27 08:52:55;;;;;;;5.90;1.00;;;;;;;31.35;12.89;101070.41;105443;1264;60448;-75
2023/05/27 08:55:48;;;;;;;5.90;1.20;;;;;;;31.46;12.53;101072.45;105624;1257;60441;-75
2023/05/27 08:58:39;;;;;;;6.70;0.90;;;;;;;31.57;12.05;101073.91;105829;1256;72560;-73
2023/05/27 09:01:28;;;;;;;5.80;1.10;;;;;;;31.13;11.86;101074.73;105538;1256;66680;-73
2023/05/27 09:04:16;;;;;;;5.70;1.20;;;;;;;31.18;13.19;101076.25;105537;1264;72667;-73
2023/05/27 09:07:04;;;;;;;6.30;1.30;;;;;;;31.36;12.70;101077.06;105625;1260;60407;-74
2023/05/27 09:09:58;;;;;;;5.20;1.20;;;;;;;31.46;12.81;101073.37;105581;1257;60921;-74
2023/05/27 09:12:47;;;;;;;8.50;1.30;;;;;;;31.55;12.49;101077.18;105641;1259;73091;-70
2023/05/27 09:15:35;;;;;;;6.10;1.00;;;;;;;31.42;11.82;101075.09;105831;1259;67777;-68
2023/05/27 09:18:37;;;;;;;5.40;0.90;;;;;;;31.08;11.33;101070.00;105748;1254;72881;-75
2023/05/27 09:21:29;;;;;;;4.60;1.00;;;;;;;30.87;12.33;101063.73;106187;1259;60444;-78
2023/05/27 09:24:17;;;;;;;7.20;1.00;;;;;;;30.84;12.18;101061.67;105849;1260;60434;-77
2023/05/27 09:27:05;;;;;;;6.90;1.10;;;;;;;30.99;11.76;101062.13;105782;1258;73884;-77
2023/05/27 09:29:55;;;;;;;7.00;1.00;;;;;;;31.08;12.09;101060.66;105799;1262;66724;-76
2023/05/27 09:32:43;;;;;;;7.00;1.30;;;;;;;31.33;12.89;101059.52;105767;1260;71250;-80
2023/05/27 09:35:40;;;;;;;5.50;1.10;;;;;;;31.39;11.91;101055.20;106599;1262;60441;-82
2023/05/27 09:38:30;;;;;;;6.10;0.90;;;;;;;31.35;11.79;101057.41;105815;1267;60434;-78
2023/05/27 09:41:27;;;;;;;5.50;0.90;;;;;;;31.38;11.36;101056.39;105945;1259;73676;-79
2023/05/27 09:44:15;;;;;;;6.70;1.10;;;;;;;31.62;12.03;101055.39;106218;1261;67741;-77
2023/05/27 09:47:07;;;;;;;5.60;1.00;;;;;;;31.85;12.44;101052.10;106232;1253;71831;-78
2023/05/27 09:49:56;;;;;;;5.30;1.20;;;;;;;31.99;12.35;101048.22;106121;1260;60516;-77
2023/05/27 09:52:47;;;;;;;4.50;0.90;;;;;;;32.07;12.20;101047.74;105965;1262;59799;-75
2023/05/27 09:55:54;;;;;;;6.50;0.90;;;;;;;32.17;12.01;101044.52;105939;1260;73748;-77
2023/05/27 09:58:43;;;;;;;4.70;1.00;;;;;;;32.04;12.22;101043.05;106001;1260;67667;-76
2023/05/27 10:01:32;;;;;;;6.00;1.10;;;;;;;31.62;12.38;101043.64;105916;1256;71228;-77
2023/05/27 10:04:21;;;;;;;5.60;1.00;;;;;;;31.60;12.69;101038.27;106125;1259;60432;-77
2023/05/27 10:07:11;;;;;;;5.60;0.90;;;;;;;31.62;12.17;101043.33;105783;1253;60433;-72
2023/05/27 10:10:08;;;;;;;6.10;1.10;;;;;;;31.74;11.94;101038.58;106283;1254;72243;-76
2023/05/27 10:12:57;;;;;;;5.00;1.00;;;;;;;31.83;12.24;101043.70;105985;1259;67709;-75
2023/05/27 10:15:51;;;;;;;6.20;0.90;;;;;;;31.85;11.63;101046.12;105760;1261;72464;-76
2023/05/27 10:18:42;;;;;;;4.50;0.90;;;;;;;32.02;12.56;101044.31;105593;1260;60411;-69
2023/05/27 10:21:31;;;;;;;5.30;1.00;;;;;;;32.11;12.61;101046.70;105634;1254;60472;-72
2023/05/27 10:24:32;;;;;;;4.70;0.90;;;;;;;32.15;13.83;101045.13;105552;1262;72844;-71
2023/05/27 10:27:21;;;;;;;5.20;1.00;;;;;;;32.28;12.71;101043.25;106854;1254;68169;-69
2023/05/27 10:30:11;;;;;;;4.00;0.80;;;;;;;32.29;12.96;101046.86;106337;1262;72447;-69
2023/05/27 10:32:59;;;;;;;4.80;1.00;;;;;;;32.28;12.31;101046.15;105721;1262;60422;-67
2023/05/27 10:35:49;;;;;;;4.70;1.10;;;;;;;32.30;12.83;101046.14;105743;1257;60330;-69
2023/05/27 10:38:41;;;;;;;4.30;0.80;;;;;;;32.28;12.06;101046.66;105646;1263;73907;-69
2023/05/27 10:42:02;;;;;;;5.40;1.30;;;;;;;32.17;11.83;101041.27;105691;1259;67658;-68
2023/05/27 10:45:05;;;;;;;5.30;1.00;;;;;;;32.20;12.03;101037.67;105606;1265;72832;-68
2023/05/27 10:47:53;;;;;;;4.10;0.80;;;;;;;32.18;12.34;101034.19;105289;1265;60535;-69
2023/05/27 10:50:50;;;;;;;3.90;0.80;;;;;;;32.20;11.73;101030.55;105071;1267;60603;-69
2023/05/27 10:53:38;;;;;;;5.30;1.20;;;;;;;32.25;11.92;101026.43;105455;1266;73937;-71
2023/05/27 10:56:27;;;;;;;6.80;1.30;;;;;;;32.31;11.77;101027.17;105106;1268;67671;-70
2023/05/27 10:59:24;;;;;;;5.40;1.50;;;;;;;32.33;11.88;101024.80;105404;1267;73509;-70
2023/05/27 11:02:12;;;;;;;5.30;1.00;;;;;;;32.56;11.93;101017.56;105225;1265;60558;-70
2023/05/27 11:05:01;;;;;;;4.30;0.80;;;;;;;32.43;12.16;101012.88;105198;1269;60446;-70
2023/05/27 11:07:49;;;;;;;5.10;1.00;;;;;;;32.17;12.16;101008.52;105300;1265;74178;-70
2023/05/27 11:10:42;;;;;;;5.20;0.90;;;;;;;31.31;12.12;101012.98;105198;1265;66313;-70
2023/05/27 11:13:39;;;;;;;6.90;1.00;;;;;;;30.29;13.34;101010.84;105363;1267;72915;-69
2023/05/27 11:16:27;;;;;;;4.60;0.80;;;;;;;29.50;13.58;101016.53;105163;1268;60738;-70
2023/05/27 11:19:15;;;;;;;4.70;0.80;;;;;;;28.82;13.54;101014.16;105270;1262;60733;-68
2023/05/27 11:22:04;;;;;;;4.40;0.90;;;;;;;28.24;14.10;101014.87;105717;1261;74288;-67
2023/05/27 11:25:05;;;;;;;4.90;1.00;;;;;;;27.60;13.53;101013.35;105808;1257;66789;-66
2023/05/27 11:27:53;;;;;;;5.10;1.00;;;;;;;26.67;14.92;101017.56;105438;1260;71120;-67
2023/05/27 11:30:42;;;;;;;4.70;0.80;;;;;;;26.18;16.32;101018.48;105830;1261;60321;-65
2023/05/27 11:33:33;;;;;;;4.50;0.70;;;;;;;25.81;16.22;101014.82;105599;1260;60478;-68
2023/05/27 11:36:31;;;;;;;5.30;0.80;;;;;;;25.05;15.69;101015.06;106323;1257;74669;-66
2023/05/27 11:39:21;;;;;;;4.40;0.90;;;;;;;24.40;16.68;101014.29;105903;1254;68309;-63
2023/05/27 11:42:10;;;;;;;4.30;0.90;;;;;;;23.60;16.70;101007.22;105699;1263;73111;-66
2023/05/27 11:45:00;;;;;;;6.80;1.00;;;;;;;23.00;17.98;101005.42;105823;1259;60297;-64
2023/05/27 11:47:50;;;;;;;4.80;0.70;;;;;;;22.70;18.50;101007.11;105600;1260;60527;-66
2023/05/27 11:50:39;;;;;;;6.20;1.10;;;;;;;22.43;18.97;101005.08;105795;1255;72824;-64
2023/05/27 11:53:29;;;;;;;5.10;1.50;;;;;;;22.07;18.87;101005.08;105923;1257;67663;-66
2023/05/27 11:56:18;;;;;;;6.30;2.40;;;;;;;21.76;19.12;100999.30;105293;1254;72030;-67
2023/05/27 11:59:06;;;;;;;5.10;1.20;;;;;;;21.49;19.26;100998.59;106079;1254;60395;-67
2023/05/27 12:01:54;;;;;;;5.80;1.10;;;;;;;21.28;19.86;100996.61;105467;1254;60416;-66
2023/05/27 12:04:42;;;;;;;4.70;1.00;;;;;;;21.15;20.13;101001.27;105946;1261;73555;-67
2023/05/27 12:07:31;;;;;;;5.80;1.20;;;;;;;20.92;20.02;100995.55;105560;1262;67971;-69
2023/05/27 12:10:21;;;;;;;4.70;1.30;;;;;;;20.72;20.60;100997.33;105802;1257;73728;-64
2023/05/27 12:13:10;;;;;;;5.10;1.00;;;;;;;20.62;20.88;100988.81;105567;1259;60428;-65
2023/05/27 12:15:58;;;;;;;5.10;1.10;;;;;;;20.52;21.09;100988.20;105774;1260;60421;-67
2023/05/27 12:18:46;;;;;;;3.90;0.80;;;;;;;20.43;20.78;100987.35;105622;1254;74075;-67
2023/05/27 12:21:37;;;;;;;5.00;1.10;;;;;;;20.38;20.39;100987.13;105549;1260;67718;-67
2023/05/27 12:24:25;;;;;;;6.50;1.10;;;;;;;20.39;20.73;100983.09;105654;1256;72164;-67
2023/05/27 12:27:13;;;;;;;5.60;0.90;;;;;;;20.41;20.39;100976.53;105660;1254;60505;-67
2023/05/27 12:30:02;;;;;;;5.30;1.00;;;;;;;20.32;20.40;100981.45;105468;1262;60500;-66
2023/05/27 12:32:51;;;;;;;5.00;1.20;;;;;;;20.10;20.21;100981.66;105755;1258;74415;-67
2023/05/27 12:35:40;;;;;;;6.80;1.10;;;;;;;20.12;21.16;100977.65;105665;1256;66102;-69
2023/05/27 12:38:29;;;;;;;4.50;1.00;;;;;;;20.05;21.88;100970.71;105492;1260;72433;-69
2023/05/27 12:41:17;;;;;;;5.20;1.10;;;;;;;19.92;21.39;100966.84;106609;1255;60489;-68
2023/05/27 12:44:05;;;;;;;4.80;1.10;;;;;;;19.59;21.92;100962.10;105694;1254;60706;-66
2023/05/27 12:46:53;;;;;;;4.40;1.00;;;;;;;19.45;21.92;100959.45;105517;1260;73660;-68
2023/05/27 12:49:42;;;;;;;4.60;1.20;;;;;;;19.47;22.78;100961.18;105717;1257;68506;-67
2023/05/27 12:52:32;;;;;;;5.10;1.00;;;;;;;19.52;21.15;100967.14;105868;1259;72263;-65
2023/05/27 12:55:21;;;;;;;4.40;1.00;;;;;;;19.37;21.81;100968.12;105676;1259;60553;-64
2023/05/27 12:58:09;;;;;;;4.90;1.00;;;;;;;19.33;22.16;100966.70;105725;1260;60515;-66
2023/05/27 13:00:57;;;;;;;4.70;1.10;;;;;;;19.32;21.97;100966.23;105413;1255;74459;-66
2023/05/27 13:03:46;;;;;;;8.10;1.20;;;;;;;19.29;22.22;100965.45;105642;1254;68865;-68
2023/05/27 13:06:35;;;;;;;5.50;1.10;;;;;;;19.13;20.92;100964.77;105576;1257;73290;-63